sensor_id;sensor_type;location;lat;lon;timestamp;temperature;humidity
17795;DHT22;9021;50.882;4.326;2022-09-14T00:01:11;19.90;99.90
17795;DHT22;9021;50.882;4.326;2022-09-14T00:03:37;19.80;99.90
17795;DHT22;9021;50.882;4.326;2022-09-14T00:06:04;19.70;99.90
17795;DHT22;9021;50.882;4.326;2022-09-14T00:08:31;19.80;99.90
17795;DHT22;9021;50.882;4.326;2022-09-14T00:10:56;19.70;99.90
17795;DHT22;9021;50.882;4.326;2022-09-14T00:13:22;19.60;99.90
17795;DHT22;9021;50.882;4.326;2022-09-14T00:15:47;19.50;99.90
17795;DHT22;9021;50.882;4.326;2022-09-14T00:18:13;19.50;99.90
17795;DHT22;9021;50.882;4.326;2022-09-14T00:20:39;19.50;99.90
17795;DHT22;9021;50.882;4.326;2022-09-14T00:23:05;19.40;99.90
17795;DHT22;9021;50.882;4.326;2022-09-14T00:25:31;19.50;99.90
17795;DHT22;9021;50.882;4.326;2022-09-14T00:27:57;19.50;99.90
17795;DHT22;9021;50.882;4.326;2022-09-14T00:30:23;19.30;99.90
17795;DHT22;9021;50.882;4.326;2022-09-14T00:32:49;19.30;99.90
17795;DHT22;9021;50.882;4.326;2022-09-14T00:35:15;19.20;99.90
17795;DHT22;9021;50.882;4.326;2022-09-14T00:37:41;19.30;99.90
17795;DHT22;9021;50.882;4.326;2022-09-14T00:40:08;19.40;99.90
17795;DHT22;9021;50.882;4.326;2022-09-14T00:42:36;19.50;99.90
17795;DHT22;9021;50.882;4.326;2022-09-14T00:45:23;19.40;99.90
17795;DHT22;9021;50.882;4.326;2022-09-14T00:47:50;19.40;99.90
17795;DHT22;9021;50.882;4.326;2022-09-14T00:50:17;19.50;99.90
17795;DHT22;9021;50.882;4.326;2022-09-14T00:52:44;19.50;99.90
17795;DHT22;9021;50.882;4.326;2022-09-14T00:55:14;19.40;99.90
17795;DHT22;9021;50.882;4.326;2022-09-14T00:57:51;19.50;99.90
17795;DHT22;9021;50.882;4.326;2022-09-14T01:00:22;19.40;99.90
17795;DHT22;9021;50.882;4.326;2022-09-14T01:02:48;19.40;99.90
17795;DHT22;9021;50.882;4.326;2022-09-14T01:05:14;19.40;99.90
17795;DHT22;9021;50.882;4.326;2022-09-14T01:13:39;19.40;99.90
17795;DHT22;9021;50.882;4.326;2022-09-14T01:16:33;19.20;99.90
17795;DHT22;9021;50.882;4.326;2022-09-14T01:19:09;19.10;99.90
17795;DHT22;9021;50.882;4.326;2022-09-14T01:21:41;19.00;99.90
17795;DHT22;9021;50.882;4.326;2022-09-14T01:31:52;19.10;99.90
17795;DHT22;9021;50.882;4.326;2022-09-14T01:37:39;18.90;99.90
17795;DHT22;9021;50.882;4.326;2022-09-14T01:40:11;18.90;99.90
17795;DHT22;9021;50.882;4.326;2022-09-14T01:42:40;18.90;99.90
17795;DHT22;9021;50.882;4.326;2022-09-14T01:45:09;18.90;99.90
17795;DHT22;9021;50.882;4.326;2022-09-14T01:47:49;18.90;99.90
17795;DHT22;9021;50.882;4.326;2022-09-14T01:50:21;18.90;99.90
17795;DHT22;9021;50.882;4.326;2022-09-14T01:52:58;18.90;99.90
17795;DHT22;9021;50.882;4.326;2022-09-14T01:55:34;19.00;99.90
17795;DHT22;9021;50.882;4.326;2022-09-14T01:58:08;19.00;99.90
17795;DHT22;9021;50.882;4.326;2022-09-14T02:00:38;19.00;99.90
17795;DHT22;9021;50.882;4.326;2022-09-14T02:03:11;18.90;99.90
17795;DHT22;9021;50.882;4.326;2022-09-14T02:08:18;19.10;99.90
17795;DHT22;9021;50.882;4.326;2022-09-14T02:10:44;19.00;99.90
17795;DHT22;9021;50.882;4.326;2022-09-14T02:13:09;18.90;99.90
17795;DHT22;9021;50.882;4.326;2022-09-14T02:15:36;18.80;99.90
17795;DHT22;9021;50.882;4.326;2022-09-14T02:18:02;18.90;99.90
17795;DHT22;9021;50.882;4.326;2022-09-14T02:23:04;19.10;99.90
17795;DHT22;9021;50.882;4.326;2022-09-14T02:25:31;18.90;99.90
17795;DHT22;9021;50.882;4.326;2022-09-14T02:27:57;18.80;99.90
17795;DHT22;9021;50.882;4.326;2022-09-14T02:30:22;18.80;99.90
17795;DHT22;9021;50.882;4.326;2022-09-14T02:33:17;18.70;99.90
17795;DHT22;9021;50.882;4.326;2022-09-14T02:35:50;18.60;99.90
17795;DHT22;9021;50.882;4.326;2022-09-14T02:39:05;18.50;99.90
17795;DHT22;9021;50.882;4.326;2022-09-14T02:44:44;18.60;99.90
17795;DHT22;9021;50.882;4.326;2022-09-14T02:47:49;18.70;99.90
17795;DHT22;9021;50.882;4.326;2022-09-14T02:50:29;18.80;99.90
17795;DHT22;9021;50.882;4.326;2022-09-14T02:55:52;18.60;99.90
17795;DHT22;9021;50.882;4.326;2022-09-14T02:58:20;18.50;99.90
17795;DHT22;9021;50.882;4.326;2022-09-14T03:00:47;18.50;99.90
17795;DHT22;9021;50.882;4.326;2022-09-14T03:03:16;18.50;99.90
17795;DHT22;9021;50.882;4.326;2022-09-14T03:05:42;18.50;99.90
17795;DHT22;9021;50.882;4.326;2022-09-14T03:08:09;18.40;99.90
17795;DHT22;9021;50.882;4.326;2022-09-14T03:10:35;18.30;99.90
17795;DHT22;9021;50.882;4.326;2022-09-14T03:13:01;18.40;99.90
17795;DHT22;9021;50.882;4.326;2022-09-14T03:15:28;18.20;99.90
17795;DHT22;9021;50.882;4.326;2022-09-14T03:17:54;18.20;99.90
17795;DHT22;9021;50.882;4.326;2022-09-14T03:20:27;18.40;99.90
17795;DHT22;9021;50.882;4.326;2022-09-14T03:22:53;18.50;99.90
17795;DHT22;9021;50.882;4.326;2022-09-14T03:25:19;18.50;99.90
17795;DHT22;9021;50.882;4.326;2022-09-14T03:27:53;18.50;99.90
17795;DHT22;9021;50.882;4.326;2022-09-14T03:30:19;18.50;99.90
17795;DHT22;9021;50.882;4.326;2022-09-14T03:32:45;18.30;99.90
17795;DHT22;9021;50.882;4.326;2022-09-14T03:35:11;18.20;99.90
17795;DHT22;9021;50.882;4.326;2022-09-14T03:37:37;18.20;99.90
17795;DHT22;9021;50.882;4.326;2022-09-14T03:40:03;18.20;99.90
17795;DHT22;9021;50.882;4.326;2022-09-14T03:42:30;18.40;99.90
17795;DHT22;9021;50.882;4.326;2022-09-14T03:44:55;18.50;99.90
17795;DHT22;9021;50.882;4.326;2022-09-14T03:47:21;18.50;99.90
17795;DHT22;9021;50.882;4.326;2022-09-14T03:49:47;18.40;99.90
17795;DHT22;9021;50.882;4.326;2022-09-14T03:52:12;18.40;99.90
17795;DHT22;9021;50.882;4.326;2022-09-14T03:54:38;18.40;99.90
17795;DHT22;9021;50.882;4.326;2022-09-14T03:57:04;18.40;99.90
17795;DHT22;9021;50.882;4.326;2022-09-14T03:59:32;18.50;99.90
17795;DHT22;9021;50.882;4.326;2022-09-14T04:01:58;18.40;99.90
17795;DHT22;9021;50.882;4.326;2022-09-14T04:04:25;18.20;99.90
17795;DHT22;9021;50.882;4.326;2022-09-14T04:06:50;18.00;99.90
17795;DHT22;9021;50.882;4.326;2022-09-14T04:09:16;18.00;99.90
17795;DHT22;9021;50.882;4.326;2022-09-14T04:11:44;18.00;99.90
17795;DHT22;9021;50.882;4.326;2022-09-14T04:14:10;18.00;99.90
17795;DHT22;9021;50.882;4.326;2022-09-14T04:16:37;18.00;99.90
17795;DHT22;9021;50.882;4.326;2022-09-14T04:19:03;18.10;99.90
17795;DHT22;9021;50.882;4.326;2022-09-14T04:21:29;18.00;99.90
17795;DHT22;9021;50.882;4.326;2022-09-14T04:23:55;18.10;99.90
17795;DHT22;9021;50.882;4.326;2022-09-14T04:26:24;18.10;99.90
17795;DHT22;9021;50.882;4.326;2022-09-14T04:28:50;18.10;99.90
17795;DHT22;9021;50.882;4.326;2022-09-14T04:31:16;18.00;99.90
17795;DHT22;9021;50.882;4.326;2022-09-14T04:33:42;18.10;99.90
17795;DHT22;9021;50.882;4.326;2022-09-14T04:36:11;18.10;99.90
17795;DHT22;9021;50.882;4.326;2022-09-14T04:38:38;18.00;99.90
17795;DHT22;9021;50.882;4.326;2022-09-14T04:41:06;18.10;99.90
17795;DHT22;9021;50.882;4.326;2022-09-14T04:43:31;18.20;99.90
17795;DHT22;9021;50.882;4.326;2022-09-14T04:46:05;18.20;99.90
17795;DHT22;9021;50.882;4.326;2022-09-14T04:48:33;18.20;99.90
17795;DHT22;9021;50.882;4.326;2022-09-14T04:51:04;18.20;99.90
17795;DHT22;9021;50.882;4.326;2022-09-14T04:53:33;18.20;99.90
17795;DHT22;9021;50.882;4.326;2022-09-14T04:56:03;17.90;99.90
17795;DHT22;9021;50.882;4.326;2022-09-14T04:58:29;17.70;99.90
17795;DHT22;9021;50.882;4.326;2022-09-14T05:01:01;17.60;99.90
17795;DHT22;9021;50.882;4.326;2022-09-14T05:03:27;17.70;99.90
17795;DHT22;9021;50.882;4.326;2022-09-14T05:05:52;17.60;99.90
17795;DHT22;9021;50.882;4.326;2022-09-14T05:08:18;17.50;99.90
17795;DHT22;9021;50.882;4.326;2022-09-14T05:10:44;17.50;99.90
17795;DHT22;9021;50.882;4.326;2022-09-14T05:13:09;17.50;99.90
17795;DHT22;9021;50.882;4.326;2022-09-14T05:15:35;17.70;99.90
17795;DHT22;9021;50.882;4.326;2022-09-14T05:18:01;17.80;99.90
17795;DHT22;9021;50.882;4.326;2022-09-14T05:20:28;17.80;99.90
17795;DHT22;9021;50.882;4.326;2022-09-14T05:22:53;17.60;99.90
17795;DHT22;9021;50.882;4.326;2022-09-14T05:25:19;17.60;99.90
17795;DHT22;9021;50.882;4.326;2022-09-14T05:27:44;17.50;99.90
17795;DHT22;9021;50.882;4.326;2022-09-14T05:30:10;17.50;99.90
17795;DHT22;9021;50.882;4.326;2022-09-14T05:32:36;17.60;99.90
17795;DHT22;9021;50.882;4.326;2022-09-14T05:35:02;17.50;99.90
17795;DHT22;9021;50.882;4.326;2022-09-14T05:37:27;17.50;99.90
17795;DHT22;9021;50.882;4.326;2022-09-14T05:39:53;17.40;99.90
17795;DHT22;9021;50.882;4.326;2022-09-14T05:42:18;17.40;99.90
17795;DHT22;9021;50.882;4.326;2022-09-14T05:44:44;17.40;99.90
17795;DHT22;9021;50.882;4.326;2022-09-14T05:47:10;17.60;99.90
17795;DHT22;9021;50.882;4.326;2022-09-14T05:49:35;17.80;99.90
17795;DHT22;9021;50.882;4.326;2022-09-14T05:52:01;17.70;99.90
17795;DHT22;9021;50.882;4.326;2022-09-14T05:54:26;17.60;99.90
17795;DHT22;9021;50.882;4.326;2022-09-14T05:56:52;17.70;99.90
17795;DHT22;9021;50.882;4.326;2022-09-14T05:59:18;17.80;99.90
17795;DHT22;9021;50.882;4.326;2022-09-14T06:01:45;17.90;99.90
17795;DHT22;9021;50.882;4.326;2022-09-14T06:04:10;17.70;99.90
17795;DHT22;9021;50.882;4.326;2022-09-14T06:06:36;17.70;99.90
17795;DHT22;9021;50.882;4.326;2022-09-14T06:09:02;17.70;99.90
17795;DHT22;9021;50.882;4.326;2022-09-14T06:11:30;17.60;99.90
17795;DHT22;9021;50.882;4.326;2022-09-14T06:13:57;17.70;99.90
17795;DHT22;9021;50.882;4.326;2022-09-14T06:16:24;17.80;99.90
17795;DHT22;9021;50.882;4.326;2022-09-14T06:18:50;17.80;99.90
17795;DHT22;9021;50.882;4.326;2022-09-14T06:21:18;17.70;99.90
17795;DHT22;9021;50.882;4.326;2022-09-14T06:23:44;17.70;99.90
17795;DHT22;9021;50.882;4.326;2022-09-14T06:26:11;17.70;99.90
17795;DHT22;9021;50.882;4.326;2022-09-14T06:28:38;17.80;99.90
17795;DHT22;9021;50.882;4.326;2022-09-14T06:31:05;17.80;99.90
17795;DHT22;9021;50.882;4.326;2022-09-14T06:33:33;17.90;99.90
17795;DHT22;9021;50.882;4.326;2022-09-14T06:36:05;17.80;99.90
17795;DHT22;9021;50.882;4.326;2022-09-14T06:38:33;18.00;99.90
17795;DHT22;9021;50.882;4.326;2022-09-14T06:41:01;18.10;99.90
17795;DHT22;9021;50.882;4.326;2022-09-14T06:43:31;18.10;99.90
17795;DHT22;9021;50.882;4.326;2022-09-14T06:46:25;18.00;99.90
17795;DHT22;9021;50.882;4.326;2022-09-14T06:49:25;18.00;99.90
17795;DHT22;9021;50.882;4.326;2022-09-14T06:51:47;17.90;99.90
17795;DHT22;9021;50.882;4.326;2022-09-14T06:54:14;17.80;99.90
17795;DHT22;9021;50.882;4.326;2022-09-14T06:56:41;17.80;99.90
17795;DHT22;9021;50.882;4.326;2022-09-14T06:59:09;17.70;99.90
17795;DHT22;9021;50.882;4.326;2022-09-14T07:01:36;17.50;99.90
17795;DHT22;9021;50.882;4.326;2022-09-14T07:04:02;17.50;99.90
17795;DHT22;9021;50.882;4.326;2022-09-14T07:06:30;17.40;99.90
17795;DHT22;9021;50.882;4.326;2022-09-14T07:08:56;17.30;99.90
17795;DHT22;9021;50.882;4.326;2022-09-14T07:11:26;17.30;99.90
17795;DHT22;9021;50.882;4.326;2022-09-14T07:13:53;17.30;99.90
17795;DHT22;9021;50.882;4.326;2022-09-14T07:16:20;17.30;99.90
17795;DHT22;9021;50.882;4.326;2022-09-14T07:18:46;17.30;99.90
17795;DHT22;9021;50.882;4.326;2022-09-14T07:21:13;17.40;99.90
17795;DHT22;9021;50.882;4.326;2022-09-14T07:23:41;17.50;99.90
17795;DHT22;9021;50.882;4.326;2022-09-14T07:26:08;17.60;99.90
17795;DHT22;9021;50.882;4.326;2022-09-14T07:28:35;17.60;99.90
17795;DHT22;9021;50.882;4.326;2022-09-14T07:31:02;17.50;99.90
17795;DHT22;9021;50.882;4.326;2022-09-14T07:33:28;17.60;99.90
17795;DHT22;9021;50.882;4.326;2022-09-14T07:35:54;17.70;99.90
17795;DHT22;9021;50.882;4.326;2022-09-14T07:38:28;17.60;99.90
17795;DHT22;9021;50.882;4.326;2022-09-14T07:40:57;17.50;99.90
17795;DHT22;9021;50.882;4.326;2022-09-14T07:43:23;17.50;99.90
17795;DHT22;9021;50.882;4.326;2022-09-14T07:45:48;17.40;99.90
17795;DHT22;9021;50.882;4.326;2022-09-14T07:48:14;17.50;99.90
17795;DHT22;9021;50.882;4.326;2022-09-14T07:50:39;17.50;99.90
17795;DHT22;9021;50.882;4.326;2022-09-14T07:53:05;17.40;99.90
17795;DHT22;9021;50.882;4.326;2022-09-14T07:55:31;17.40;99.90
17795;DHT22;9021;50.882;4.326;2022-09-14T07:57:56;17.40;99.90
17795;DHT22;9021;50.882;4.326;2022-09-14T08:00:22;17.40;99.90
17795;DHT22;9021;50.882;4.326;2022-09-14T08:02:52;17.40;99.90
17795;DHT22;9021;50.882;4.326;2022-09-14T08:05:19;17.30;99.90
17795;DHT22;9021;50.882;4.326;2022-09-14T08:07:45;17.40;99.90
17795;DHT22;9021;50.882;4.326;2022-09-14T08:10:11;17.40;99.90
17795;DHT22;9021;50.882;4.326;2022-09-14T08:12:36;17.40;99.90
17795;DHT22;9021;50.882;4.326;2022-09-14T08:15:03;17.40;99.90
17795;DHT22;9021;50.882;4.326;2022-09-14T08:17:28;17.50;99.90
17795;DHT22;9021;50.882;4.326;2022-09-14T08:19:54;17.40;99.90
17795;DHT22;9021;50.882;4.326;2022-09-14T08:22:20;17.40;99.90
17795;DHT22;9021;50.882;4.326;2022-09-14T08:24:46;17.60;99.90
17795;DHT22;9021;50.882;4.326;2022-09-14T08:27:11;17.70;99.90
17795;DHT22;9021;50.882;4.326;2022-09-14T08:29:37;17.70;99.90
17795;DHT22;9021;50.882;4.326;2022-09-14T08:32:04;17.70;99.90
17795;DHT22;9021;50.882;4.326;2022-09-14T08:34:29;17.60;99.90
17795;DHT22;9021;50.882;4.326;2022-09-14T08:36:55;17.50;99.90
17795;DHT22;9021;50.882;4.326;2022-09-14T08:39:21;17.60;99.90
17795;DHT22;9021;50.882;4.326;2022-09-14T08:41:56;17.80;99.90
17795;DHT22;9021;50.882;4.326;2022-09-14T08:44:40;17.90;99.90
17795;DHT22;9021;50.882;4.326;2022-09-14T08:47:16;17.80;99.90
17795;DHT22;9021;50.882;4.326;2022-09-14T08:50:00;17.80;99.90
17795;DHT22;9021;50.882;4.326;2022-09-14T08:52:28;17.90;99.90
17795;DHT22;9021;50.882;4.326;2022-09-14T08:55:01;18.00;99.90
17795;DHT22;9021;50.882;4.326;2022-09-14T08:57:47;17.80;99.90
17795;DHT22;9021;50.882;4.326;2022-09-14T09:00:17;17.80;99.90
17795;DHT22;9021;50.882;4.326;2022-09-14T09:03:47;17.60;99.90
17795;DHT22;9021;50.882;4.326;2022-09-14T09:09:05;17.60;99.90
17795;DHT22;9021;50.882;4.326;2022-09-14T09:11:39;17.60;99.90
17795;DHT22;9021;50.882;4.326;2022-09-14T09:16:48;17.70;99.90
17795;DHT22;9021;50.882;4.326;2022-09-14T09:19:20;17.90;99.90
17795;DHT22;9021;50.882;4.326;2022-09-14T09:21:48;17.90;99.90
17795;DHT22;9021;50.882;4.326;2022-09-14T09:26:54;18.20;99.90
17795;DHT22;9021;50.882;4.326;2022-09-14T09:29:20;18.10;99.90
17795;DHT22;9021;50.882;4.326;2022-09-14T09:31:50;17.80;99.90
17795;DHT22;9021;50.882;4.326;2022-09-14T09:34:23;17.70;99.90
17795;DHT22;9021;50.882;4.326;2022-09-14T09:36:49;17.80;99.90
17795;DHT22;9021;50.882;4.326;2022-09-14T09:39:16;17.80;99.90
17795;DHT22;9021;50.882;4.326;2022-09-14T09:44:16;17.90;99.90
17795;DHT22;9021;50.882;4.326;2022-09-14T09:46:47;17.90;99.90
17795;DHT22;9021;50.882;4.326;2022-09-14T09:49:24;17.90;99.90
17795;DHT22;9021;50.882;4.326;2022-09-14T09:51:50;17.90;99.90
17795;DHT22;9021;50.882;4.326;2022-09-14T09:54:28;18.00;99.90
17795;DHT22;9021;50.882;4.326;2022-09-14T09:57:05;18.00;99.90
17795;DHT22;9021;50.882;4.326;2022-09-14T09:59:35;18.00;99.90
17795;DHT22;9021;50.882;4.326;2022-09-14T10:02:28;18.00;99.90
17795;DHT22;9021;50.882;4.326;2022-09-14T10:07:36;18.30;99.90
17795;DHT22;9021;50.882;4.326;2022-09-14T10:10:07;18.30;99.90
17795;DHT22;9021;50.882;4.326;2022-09-14T10:12:34;18.40;99.90
17795;DHT22;9021;50.882;4.326;2022-09-14T10:15:20;18.30;99.90
17795;DHT22;9021;50.882;4.326;2022-09-14T10:20:32;18.40;99.90
17795;DHT22;9021;50.882;4.326;2022-09-14T10:25:43;18.60;99.90
17795;DHT22;9021;50.882;4.326;2022-09-14T10:28:31;18.50;99.90
17795;DHT22;9021;50.882;4.326;2022-09-14T10:31:22;18.40;99.90
17795;DHT22;9021;50.882;4.326;2022-09-14T10:33:54;18.50;99.90
17795;DHT22;9021;50.882;4.326;2022-09-14T10:36:40;18.50;99.90
17795;DHT22;9021;50.882;4.326;2022-09-14T10:41:57;18.70;99.90
17795;DHT22;9021;50.882;4.326;2022-09-14T10:44:34;18.70;99.90
17795;DHT22;9021;50.882;4.326;2022-09-14T10:58:23;18.40;99.90
17795;DHT22;9021;50.882;4.326;2022-09-14T11:07:00;18.40;99.90
17795;DHT22;9021;50.882;4.326;2022-09-14T11:09:52;18.50;99.90
17795;DHT22;9021;50.882;4.326;2022-09-14T11:18:14;18.30;99.90
17795;DHT22;9021;50.882;4.326;2022-09-14T11:20:59;18.40;99.90
17795;DHT22;9021;50.882;4.326;2022-09-14T11:23:50;18.20;99.90
17795;DHT22;9021;50.882;4.326;2022-09-14T11:26:22;18.00;99.90
17795;DHT22;9021;50.882;4.326;2022-09-14T11:28:57;17.90;99.90
17795;DHT22;9021;50.882;4.326;2022-09-14T11:31:33;17.90;99.90
17795;DHT22;9021;50.882;4.326;2022-09-14T11:34:26;18.00;99.90
17795;DHT22;9021;50.882;4.326;2022-09-14T11:36:58;18.20;99.90
17795;DHT22;9021;50.882;4.326;2022-09-14T11:39:35;18.30;99.90
17795;DHT22;9021;50.882;4.326;2022-09-14T11:42:07;18.40;99.90
17795;DHT22;9021;50.882;4.326;2022-09-14T11:44:37;18.40;99.90
17795;DHT22;9021;50.882;4.326;2022-09-14T11:47:20;18.40;99.90
17795;DHT22;9021;50.882;4.326;2022-09-14T11:50:07;18.40;99.90
17795;DHT22;9021;50.882;4.326;2022-09-14T11:52:38;18.30;99.90
17795;DHT22;9021;50.882;4.326;2022-09-14T11:55:09;18.30;99.90
17795;DHT22;9021;50.882;4.326;2022-09-14T11:57:45;18.30;99.90
17795;DHT22;9021;50.882;4.326;2022-09-14T12:03:22;18.20;99.90
17795;DHT22;9021;50.882;4.326;2022-09-14T12:11:48;18.50;99.90
17795;DHT22;9021;50.882;4.326;2022-09-14T12:19:31;18.40;99.90
17795;DHT22;9021;50.882;4.326;2022-09-14T12:22:35;18.30;99.90
17795;DHT22;9021;50.882;4.326;2022-09-14T12:25:17;18.30;99.90
17795;DHT22;9021;50.882;4.326;2022-09-14T12:27:44;18.30;99.90
17795;DHT22;9021;50.882;4.326;2022-09-14T12:43:50;18.30;99.90
17795;DHT22;9021;50.882;4.326;2022-09-14T12:54:37;18.60;99.90
17795;DHT22;9021;50.882;4.326;2022-09-14T13:04:51;18.40;99.90
17795;DHT22;9021;50.882;4.326;2022-09-14T13:07:19;18.40;99.90
17795;DHT22;9021;50.882;4.326;2022-09-14T13:09:48;18.30;99.90
17795;DHT22;9021;50.882;4.326;2022-09-14T13:15:02;18.40;99.90
17795;DHT22;9021;50.882;4.326;2022-09-14T13:17:28;18.50;99.90
17795;DHT22;9021;50.882;4.326;2022-09-14T13:19:59;18.60;99.90
17795;DHT22;9021;50.882;4.326;2022-09-14T13:22:28;18.70;99.90
17795;DHT22;9021;50.882;4.326;2022-09-14T13:24:57;18.60;99.90
17795;DHT22;9021;50.882;4.326;2022-09-14T13:30:19;18.80;99.90
17795;DHT22;9021;50.882;4.326;2022-09-14T13:32:48;18.80;99.90
17795;DHT22;9021;50.882;4.326;2022-09-14T13:35:19;18.60;99.90
17795;DHT22;9021;50.882;4.326;2022-09-14T13:37:46;18.50;99.90
17795;DHT22;9021;50.882;4.326;2022-09-14T13:40:13;18.50;99.90
17795;DHT22;9021;50.882;4.326;2022-09-14T13:42:39;18.60;99.90
17795;DHT22;9021;50.882;4.326;2022-09-14T13:45:06;18.80;99.90
17795;DHT22;9021;50.882;4.326;2022-09-14T13:47:32;18.90;99.90
17795;DHT22;9021;50.882;4.326;2022-09-14T13:49:59;19.00;99.90
17795;DHT22;9021;50.882;4.326;2022-09-14T13:55:06;18.90;99.90
17795;DHT22;9021;50.882;4.326;2022-09-14T13:57:33;18.80;99.90
17795;DHT22;9021;50.882;4.326;2022-09-14T14:02:35;18.70;99.90
17795;DHT22;9021;50.882;4.326;2022-09-14T14:05:02;18.70;99.90
17795;DHT22;9021;50.882;4.326;2022-09-14T14:07:33;18.90;99.90
17795;DHT22;9021;50.882;4.326;2022-09-14T14:09:59;19.00;99.90
17795;DHT22;9021;50.882;4.326;2022-09-14T14:15:00;18.90;99.90
17795;DHT22;9021;50.882;4.326;2022-09-14T14:19:57;18.90;99.90
17795;DHT22;9021;50.882;4.326;2022-09-14T14:24:51;18.90;99.90
17795;DHT22;9021;50.882;4.326;2022-09-14T14:27:29;18.70;99.90
17795;DHT22;9021;50.882;4.326;2022-09-14T14:29:56;18.80;99.90
17795;DHT22;9021;50.882;4.326;2022-09-14T14:32:23;18.80;99.90
17795;DHT22;9021;50.882;4.326;2022-09-14T14:34:49;18.80;99.90
17795;DHT22;9021;50.882;4.326;2022-09-14T14:37:17;18.80;99.90
17795;DHT22;9021;50.882;4.326;2022-09-14T14:39:43;18.70;99.90
17795;DHT22;9021;50.882;4.326;2022-09-14T14:42:09;18.80;99.90
17795;DHT22;9021;50.882;4.326;2022-09-14T14:44:35;18.90;99.90
17795;DHT22;9021;50.882;4.326;2022-09-14T14:47:01;18.80;99.90
17795;DHT22;9021;50.882;4.326;2022-09-14T14:49:27;18.50;99.90
17795;DHT22;9021;50.882;4.326;2022-09-14T14:51:53;18.40;99.90
17795;DHT22;9021;50.882;4.326;2022-09-14T14:54:18;18.40;99.90
17795;DHT22;9021;50.882;4.326;2022-09-14T14:56:45;18.30;99.90
17795;DHT22;9021;50.882;4.326;2022-09-14T14:59:29;18.20;99.90
17795;DHT22;9021;50.882;4.326;2022-09-14T15:01:56;18.40;99.90
17795;DHT22;9021;50.882;4.326;2022-09-14T15:04:22;18.40;99.90
17795;DHT22;9021;50.882;4.326;2022-09-14T15:06:48;18.20;99.90
17795;DHT22;9021;50.882;4.326;2022-09-14T15:09:16;18.20;99.90
17795;DHT22;9021;50.882;4.326;2022-09-14T15:11:42;18.10;99.90
17795;DHT22;9021;50.882;4.326;2022-09-14T15:14:11;18.10;99.90
17795;DHT22;9021;50.882;4.326;2022-09-14T15:16:37;18.20;99.90
17795;DHT22;9021;50.882;4.326;2022-09-14T15:19:03;18.30;99.90
17795;DHT22;9021;50.882;4.326;2022-09-14T15:21:29;18.30;99.90
17795;DHT22;9021;50.882;4.326;2022-09-14T15:23:54;18.40;99.90
17795;DHT22;9021;50.882;4.326;2022-09-14T15:26:20;18.50;99.90
17795;DHT22;9021;50.882;4.326;2022-09-14T15:28:45;18.40;99.90
17795;DHT22;9021;50.882;4.326;2022-09-14T15:31:13;18.30;99.90
17795;DHT22;9021;50.882;4.326;2022-09-14T15:33:38;18.40;99.90
17795;DHT22;9021;50.882;4.326;2022-09-14T15:36:04;18.40;99.90
17795;DHT22;9021;50.882;4.326;2022-09-14T15:38:30;18.50;99.90
17795;DHT22;9021;50.882;4.326;2022-09-14T15:40:55;18.50;99.90
17795;DHT22;9021;50.882;4.326;2022-09-14T15:43:21;18.60;99.90
17795;DHT22;9021;50.882;4.326;2022-09-14T15:45:47;18.60;99.90
17795;DHT22;9021;50.882;4.326;2022-09-14T15:48:17;18.50;99.90
17795;DHT22;9021;50.882;4.326;2022-09-14T15:50:47;18.40;99.90
17795;DHT22;9021;50.882;4.326;2022-09-14T15:53:15;18.50;99.90
17795;DHT22;9021;50.882;4.326;2022-09-14T15:55:42;18.50;99.90
17795;DHT22;9021;50.882;4.326;2022-09-14T15:58:09;18.40;99.90
17795;DHT22;9021;50.882;4.326;2022-09-14T16:00:36;18.40;99.90
17795;DHT22;9021;50.882;4.326;2022-09-14T16:03:05;18.30;99.90
17795;DHT22;9021;50.882;4.326;2022-09-14T16:05:31;18.30;99.90
17795;DHT22;9021;50.882;4.326;2022-09-14T16:08:01;18.20;99.90
17795;DHT22;9021;50.882;4.326;2022-09-14T16:10:27;18.30;99.90
17795;DHT22;9021;50.882;4.326;2022-09-14T16:12:53;18.20;99.90
17795;DHT22;9021;50.882;4.326;2022-09-14T16:15:19;18.30;99.90
17795;DHT22;9021;50.882;4.326;2022-09-14T16:17:49;18.30;99.90
17795;DHT22;9021;50.882;4.326;2022-09-14T16:20:15;18.20;99.90
17795;DHT22;9021;50.882;4.326;2022-09-14T16:22:41;18.30;99.90
17795;DHT22;9021;50.882;4.326;2022-09-14T16:25:06;18.30;99.90
17795;DHT22;9021;50.882;4.326;2022-09-14T16:27:32;18.20;99.90
17795;DHT22;9021;50.882;4.326;2022-09-14T16:29:58;18.20;99.90
17795;DHT22;9021;50.882;4.326;2022-09-14T16:32:23;18.20;99.90
17795;DHT22;9021;50.882;4.326;2022-09-14T16:34:49;18.20;99.90
17795;DHT22;9021;50.882;4.326;2022-09-14T16:37:15;18.20;99.90
17795;DHT22;9021;50.882;4.326;2022-09-14T16:39:40;18.20;99.90
17795;DHT22;9021;50.882;4.326;2022-09-14T16:42:06;18.30;99.90
17795;DHT22;9021;50.882;4.326;2022-09-14T16:44:32;18.20;99.90
17795;DHT22;9021;50.882;4.326;2022-09-14T16:46:58;18.20;99.90
17795;DHT22;9021;50.882;4.326;2022-09-14T16:49:24;18.10;99.90
17795;DHT22;9021;50.882;4.326;2022-09-14T16:51:50;18.20;99.90
17795;DHT22;9021;50.882;4.326;2022-09-14T16:54:19;18.00;99.90
17795;DHT22;9021;50.882;4.326;2022-09-14T16:56:45;17.80;99.90
17795;DHT22;9021;50.882;4.326;2022-09-14T16:59:11;17.70;99.90
17795;DHT22;9021;50.882;4.326;2022-09-14T17:01:40;17.60;99.90
17795;DHT22;9021;50.882;4.326;2022-09-14T17:04:14;17.40;99.90
17795;DHT22;9021;50.882;4.326;2022-09-14T17:06:42;17.30;99.90
17795;DHT22;9021;50.882;4.326;2022-09-14T17:09:20;17.30;99.90
17795;DHT22;9021;50.882;4.326;2022-09-14T17:11:46;17.40;99.90
17795;DHT22;9021;50.882;4.326;2022-09-14T17:14:18;17.50;99.90
17795;DHT22;9021;50.882;4.326;2022-09-14T17:16:45;17.50;99.90
17795;DHT22;9021;50.882;4.326;2022-09-14T17:19:11;17.50;99.90
17795;DHT22;9021;50.882;4.326;2022-09-14T17:21:39;17.50;99.90
17795;DHT22;9021;50.882;4.326;2022-09-14T17:24:06;17.50;99.90
17795;DHT22;9021;50.882;4.326;2022-09-14T17:26:33;17.50;99.90
17795;DHT22;9021;50.882;4.326;2022-09-14T17:28:59;17.60;99.90
17795;DHT22;9021;50.882;4.326;2022-09-14T17:31:28;17.60;99.90
17795;DHT22;9021;50.882;4.326;2022-09-14T17:33:55;17.70;99.90
17795;DHT22;9021;50.882;4.326;2022-09-14T17:36:22;17.60;99.90
17795;DHT22;9021;50.882;4.326;2022-09-14T17:38:48;17.50;99.90
17795;DHT22;9021;50.882;4.326;2022-09-14T17:41:19;17.50;99.90
17795;DHT22;9021;50.882;4.326;2022-09-14T17:43:53;17.60;99.90
17795;DHT22;9021;50.882;4.326;2022-09-14T17:46:19;17.60;99.90
17795;DHT22;9021;50.882;4.326;2022-09-14T17:48:47;17.50;99.90
17795;DHT22;9021;50.882;4.326;2022-09-14T17:51:24;17.50;99.90
17795;DHT22;9021;50.882;4.326;2022-09-14T17:53:52;17.60;99.90
17795;DHT22;9021;50.882;4.326;2022-09-14T17:56:19;17.50;99.90
17795;DHT22;9021;50.882;4.326;2022-09-14T17:58:46;17.50;99.90
17795;DHT22;9021;50.882;4.326;2022-09-14T18:01:19;17.50;99.90
17795;DHT22;9021;50.882;4.326;2022-09-14T18:03:51;17.60;99.90
17795;DHT22;9021;50.882;4.326;2022-09-14T18:06:18;17.60;99.90
17795;DHT22;9021;50.882;4.326;2022-09-14T18:08:44;17.60;99.90
17795;DHT22;9021;50.882;4.326;2022-09-14T18:11:15;17.60;99.90
17795;DHT22;9021;50.882;4.326;2022-09-14T18:13:46;17.70;99.90